createdAt,value
2018-07-14T00:02:19.649Z,48.15
2018-07-14T00:04:50.285Z,48.01
2018-07-14T00:07:25.374Z,48.07
2018-07-14T00:09:59.504Z,48.77
2018-07-14T00:13:06.100Z,48.07
2018-07-14T00:15:43.259Z,48.06
2018-07-14T00:18:15.101Z,48.11
2018-07-14T00:20:47.459Z,48.54
2018-07-14T00:23:18.172Z,48.37
2018-07-14T00:26:08.442Z,48.38
2018-07-14T00:28:40.937Z,48.43
2018-07-14T00:31:14.753Z,48.59
2018-07-14T00:33:46.472Z,49.54
2018-07-14T00:36:25.632Z,49.12
2018-07-14T00:38:56.920Z,49.83
2018-07-14T00:41:28.273Z,49.89
2018-07-14T00:43:58.871Z,50.10
2018-07-14T00:46:30.292Z,49.70
2018-07-14T00:49:01.100Z,49.90
2018-07-14T00:51:33.475Z,50.80
2018-07-14T00:54:07.334Z,50.11
2018-07-14T00:56:41.195Z,50.45
2018-07-14T00:59:18.547Z,49.95
2018-07-14T01:01:50.218Z,50.27
2018-07-14T01:04:22.433Z,50.69
2018-07-14T01:06:54.840Z,50.23
2018-07-14T01:09:25.588Z,50.30
2018-07-14T01:11:56.736Z,50.80
2018-07-14T01:14:28.177Z,50.87
2018-07-14T01:17:00.735Z,51.26
2018-07-14T01:19:31.229Z,51.67
2018-07-14T01:22:01.770Z,51.07
2018-07-14T01:24:32.898Z,51.52
2018-07-14T01:27:03.379Z,51.50
2018-07-14T01:29:34.073Z,51.53
2018-07-14T01:32:05.498Z,51.74
2018-07-14T01:34:39.883Z,51.19
2018-07-14T01:37:10.522Z,50.62
2018-07-14T01:39:41.611Z,50.92
2018-07-14T01:42:11.965Z,50.79
2018-07-14T01:44:42.367Z,51.41
2018-07-14T01:47:13.011Z,51.90
2018-07-14T01:49:43.319Z,51.79
2018-07-14T01:52:14.081Z,50.87
2018-07-14T01:54:44.323Z,51.69
2018-07-14T01:57:14.767Z,50.61
2018-07-14T01:59:45.412Z,51.36
2018-07-14T02:02:15.974Z,51.42
2018-07-14T02:04:46.320Z,51.41
2018-07-14T02:07:16.467Z,51.80
2018-07-14T02:09:46.767Z,51.15
2018-07-14T02:12:17.334Z,52.64
2018-07-14T02:14:47.734Z,53.04
2018-07-14T02:17:20.501Z,52.42
2018-07-14T02:19:50.735Z,53.03
2018-07-14T02:22:21.833Z,53.52
2018-07-14T02:24:52.619Z,53.76
2018-07-14T02:27:22.911Z,53.72
2018-07-14T02:29:53.244Z,53.59
2018-07-14T02:32:27.015Z,53.07
2018-07-14T02:34:57.916Z,54.86
2018-07-14T02:37:28.502Z,55.21
2018-07-14T02:39:59.283Z,55.02
2018-07-14T02:42:29.560Z,54.70
2018-07-14T02:47:36.515Z,55.20
2018-07-14T02:50:07.243Z,55.03
2018-07-14T02:52:41.458Z,55.76
2018-07-14T02:55:15.159Z,55.13
2018-07-14T02:57:46.567Z,54.58
2018-07-14T03:00:17.974Z,53.74
2018-07-14T03:02:48.979Z,55.48
2018-07-14T03:05:19.446Z,54.30
2018-07-14T03:07:50.789Z,54.08
2018-07-14T03:10:21.256Z,54.44
2018-07-14T03:12:54.236Z,54.87
2018-07-14T03:15:24.599Z,55.33
2018-07-14T03:17:55.146Z,54.73
2018-07-14T03:20:25.886Z,55.81
2018-07-14T03:22:56.153Z,55.94
2018-07-14T03:25:26.386Z,55.55
2018-07-14T03:27:56.582Z,55.85
2018-07-14T03:30:27.005Z,56.45
2018-07-14T03:32:57.678Z,55.58
2018-07-14T03:35:27.920Z,56.23
2018-07-14T03:37:58.096Z,56.42
2018-07-14T03:40:28.793Z,56.00
2018-07-14T03:42:59.350Z,57.27
2018-07-14T03:45:30.126Z,57.09
2018-07-14T03:48:00.366Z,56.31
2018-07-14T03:50:31.284Z,56.76
2018-07-14T03:53:01.926Z,56.76
2018-07-14T03:55:32.493Z,56.05
2018-07-14T03:58:03.086Z,56.17
2018-07-14T04:00:34.989Z,55.03
2018-07-14T04:03:05.206Z,55.06
2018-07-14T04:05:36.497Z,56.17
2018-07-14T04:08:06.985Z,56.57
2018-07-14T04:10:37.516Z,55.75
2018-07-14T04:13:10.799Z,56.97
2018-07-14T04:15:41.312Z,57.44
2018-07-14T04:18:11.876Z,56.77
2018-07-14T04:20:43.373Z,56.58
2018-07-14T04:23:13.770Z,55.96
2018-07-14T04:25:44.281Z,57.16
2018-07-14T04:28:25.987Z,56.84
2018-07-14T04:30:56.356Z,55.77
2018-07-14T04:33:27.841Z,55.61
2018-07-14T04:35:58.209Z,55.46
2018-07-14T04:38:28.535Z,54.37
2018-07-14T04:41:00.385Z,54.02
2018-07-14T04:43:30.596Z,54.51
2018-07-14T04:46:01.089Z,54.14
2018-07-14T04:48:31.428Z,53.90
2018-07-14T04:53:37.274Z,53.77
2018-07-14T04:56:07.466Z,52.19
2018-07-14T04:58:37.714Z,52.24
2018-07-14T05:01:08.799Z,52.86
2018-07-14T05:03:39.383Z,53.01
2018-07-14T05:06:09.642Z,52.43
2018-07-14T05:08:40.207Z,51.89
2018-07-14T05:11:10.899Z,52.32
2018-07-14T05:13:41.092Z,51.50
2018-07-14T05:16:13.103Z,50.04
2018-07-14T05:18:43.705Z,50.08
2018-07-14T05:21:14.543Z,49.54
2018-07-14T05:23:45.454Z,50.22
2018-07-14T05:26:15.697Z,48.65
2018-07-14T05:28:45.980Z,48.70
2018-07-14T05:31:16.994Z,47.99
2018-07-14T05:33:47.353Z,47.90
2018-07-14T05:36:17.778Z,47.34
2018-07-14T05:38:48.030Z,47.32
2018-07-14T05:41:18.321Z,47.05
2018-07-14T05:43:49.017Z,47.05
2018-07-14T05:46:20.914Z,45.91
2018-07-14T05:48:51.121Z,45.80
2018-07-14T05:51:22.320Z,44.89
2018-07-14T05:53:53.456Z,45.12
2018-07-14T05:56:23.673Z,44.53
2018-07-14T05:58:54.326Z,43.95
2018-07-14T06:01:25.484Z,43.44
2018-07-14T06:03:56.163Z,43.16
2018-07-14T06:06:26.571Z,42.21
2018-07-14T06:08:56.814Z,42.06
2018-07-14T06:11:27.688Z,43.00
2018-07-14T06:13:58.299Z,41.53
2018-07-14T06:16:28.757Z,42.02
2018-07-14T06:18:59.532Z,40.82
2018-07-14T06:21:30.745Z,40.64
2018-07-14T06:24:01.831Z,40.15
2018-07-14T06:26:33.952Z,41.02
2018-07-14T06:29:05.472Z,39.92
2018-07-14T06:31:36.254Z,39.80
2018-07-14T06:34:07.353Z,40.35
2018-07-14T06:36:38.140Z,38.89
2018-07-14T06:39:11.047Z,38.79
2018-07-14T06:41:41.277Z,38.57
2018-07-14T06:44:11.520Z,36.61
2018-07-14T06:46:44.202Z,36.67
2018-07-14T06:49:18.500Z,37.54
2018-07-14T06:51:50.448Z,37.59
2018-07-14T06:54:22.453Z,37.75
2018-07-14T06:56:53.201Z,36.66
2018-07-14T06:59:25.854Z,35.83
2018-07-14T07:01:58.168Z,35.65
2018-07-14T07:04:30.454Z,35.61
2018-07-14T07:07:01.676Z,35.69
2018-07-14T07:09:35.599Z,35.59
2018-07-14T07:12:06.258Z,35.53
2018-07-14T07:14:37.514Z,34.67
2018-07-14T07:17:09.269Z,34.36
2018-07-14T07:19:45.027Z,34.18
2018-07-14T07:22:15.527Z,33.70
2018-07-14T07:24:47.249Z,34.17
2018-07-14T07:27:25.276Z,34.24
2018-07-14T07:29:56.235Z,34.52
2018-07-14T07:32:27.265Z,33.92
2018-07-14T07:35:06.437Z,33.85
2018-07-14T07:37:36.733Z,33.19
2018-07-14T07:40:07.542Z,33.40
2018-07-14T07:42:38.479Z,32.71
2018-07-14T07:45:12.737Z,33.21
2018-07-14T07:47:44.593Z,32.86
2018-07-14T07:50:15.069Z,33.00
2018-07-14T07:52:46.957Z,34.40
2018-07-14T07:55:17.646Z,33.70
2018-07-14T07:58:07.542Z,34.05
2018-07-14T08:00:40.395Z,33.50
2018-07-14T08:03:11.295Z,33.15
2018-07-14T08:05:44.295Z,32.63
2018-07-14T08:08:14.501Z,32.03
2018-07-14T08:10:44.967Z,33.35
2018-07-14T08:13:15.737Z,32.74
2018-07-14T08:15:47.293Z,33.11
2018-07-14T08:18:19.323Z,33.41
2018-07-14T08:20:55.984Z,33.78
2018-07-14T08:23:28.775Z,33.06
2018-07-14T08:26:00.665Z,33.00
2018-07-14T08:28:31.345Z,32.58
2018-07-14T08:31:03.201Z,32.85
2018-07-14T08:33:52.570Z,32.89
2018-07-14T08:36:26.718Z,32.82
2018-07-14T08:38:57.168Z,32.17
2018-07-14T08:41:31.677Z,32.80
2018-07-14T08:44:07.344Z,32.43
2018-07-14T08:46:44.626Z,32.66
2018-07-14T08:49:15.944Z,32.52
2018-07-14T08:51:47.761Z,33.04
2018-07-14T08:54:20.894Z,32.58
2018-07-14T08:56:54.339Z,32.72
2018-07-14T08:59:29.646Z,32.08
2018-07-14T09:02:14.136Z,31.98
2018-07-14T09:05:19.677Z,31.66
2018-07-14T09:07:54.531Z,30.91
2018-07-14T09:10:28.624Z,31.02
2018-07-14T09:13:19.069Z,31.60
2018-07-14T09:15:57.813Z,30.04
2018-07-14T09:18:36.138Z,29.59
2018-07-14T09:21:13.202Z,29.09
2018-07-14T09:23:47.561Z,29.52
2018-07-14T09:26:24.803Z,29.82
2018-07-14T09:28:58.483Z,30.01
2018-07-14T09:31:36.606Z,29.86
2018-07-14T09:34:09.419Z,30.01
2018-07-14T09:36:53.267Z,29.76
2018-07-14T09:39:28.211Z,30.17
2018-07-14T09:42:05.479Z,30.25
2018-07-14T09:44:41.205Z,30.23
2018-07-14T09:47:15.760Z,30.27
2018-07-14T09:50:42.351Z,29.59
2018-07-14T09:53:36.208Z,29.65
2018-07-14T09:56:11.288Z,29.94
2018-07-14T09:58:46.310Z,29.87
2018-07-14T10:01:34.672Z,29.87
2018-07-14T10:04:25.425Z,29.88
2018-07-14T10:07:34.302Z,28.91
2018-07-14T10:10:07.774Z,29.31
2018-07-14T10:12:44.124Z,29.79
2018-07-14T10:15:31.280Z,28.99
2018-07-14T10:18:12.106Z,28.56
2018-07-14T10:20:52.298Z,27.45
2018-07-14T10:23:26.333Z,27.36
2018-07-14T10:25:58.398Z,27.84
2018-07-14T10:28:35.559Z,27.97
2018-07-14T10:31:09.366Z,26.96
2018-07-14T10:33:42.397Z,28.40
2018-07-14T10:36:15.835Z,27.41
2018-07-14T10:38:49.531Z,27.27
2018-07-14T10:41:32.472Z,26.82
2018-07-14T10:44:05.798Z,27.20
2018-07-14T10:46:38.957Z,28.02
2018-07-14T10:49:10.752Z,28.47
2018-07-14T10:51:42.331Z,29.13
2018-07-14T10:54:17.534Z,29.00
2018-07-14T10:56:53.187Z,28.85
2018-07-14T10:59:25.700Z,29.26
2018-07-14T11:02:02.088Z,29.13
2018-07-14T11:04:51.549Z,30.03
2018-07-14T11:07:32.964Z,29.27
2018-07-14T11:10:09.616Z,27.43
2018-07-14T11:12:45.610Z,27.27
2018-07-14T11:15:26.720Z,25.93
2018-07-14T11:18:08.758Z,25.58
2018-07-14T11:20:48.363Z,25.46
2018-07-14T11:23:32.673Z,25.21
2018-07-14T11:26:03.928Z,24.85
2018-07-14T11:28:38.412Z,24.83
2018-07-14T11:31:21.941Z,25.54
2018-07-14T11:33:57.450Z,25.55
2018-07-14T11:36:31.047Z,25.42
2018-07-14T11:39:02.157Z,25.38
2018-07-14T11:41:35.224Z,24.55
2018-07-14T11:44:07.984Z,24.93
2018-07-14T11:46:39.575Z,24.39
2018-07-14T11:49:11.544Z,24.53
2018-07-14T11:51:44.987Z,23.17
2018-07-14T11:54:16.798Z,23.08
2018-07-14T11:56:58.234Z,22.71
2018-07-14T11:59:29.678Z,22.20
2018-07-14T12:02:02.152Z,22.77
2018-07-14T12:04:35.364Z,23.02
2018-07-14T12:07:06.794Z,23.98
2018-07-14T12:09:39.161Z,24.33
2018-07-14T12:12:11.560Z,25.28
2018-07-14T12:14:41.947Z,25.75
2018-07-14T12:17:21.072Z,25.48
2018-07-14T12:19:56.726Z,24.06
2018-07-14T12:22:32.776Z,24.27
2018-07-14T12:25:03.175Z,24.97
2018-07-14T12:27:33.747Z,24.17
2018-07-14T12:30:18.862Z,23.44
2018-07-14T12:33:07.078Z,24.71
2018-07-14T12:35:40.344Z,25.32
2018-07-14T12:38:19.005Z,25.32
2018-07-14T12:40:52.609Z,25.55
2018-07-14T12:43:23.697Z,24.96
2018-07-14T12:45:56.440Z,25.47
2018-07-14T12:48:28.195Z,23.09
2018-07-14T12:50:58.478Z,22.52
2018-07-14T12:53:32.556Z,21.51
2018-07-14T12:56:04.319Z,21.03
2018-07-14T12:58:35.811Z,20.55
2018-07-14T13:01:08.029Z,21.11
2018-07-14T13:03:42.304Z,21.28
2018-07-14T13:06:16.115Z,21.12
2018-07-14T13:08:50.836Z,21.46
2018-07-14T13:11:21.128Z,20.98
2018-07-14T13:13:54.106Z,20.31
2018-07-14T13:16:25.683Z,19.95
2018-07-14T13:18:58.185Z,19.30
2018-07-14T13:21:28.924Z,19.44
2018-07-14T13:23:59.121Z,18.89
2018-07-14T13:26:29.426Z,20.08
2018-07-14T13:29:01.041Z,19.49
2018-07-14T13:31:31.814Z,19.32
2018-07-14T13:34:06.641Z,19.79
2018-07-14T13:36:40.229Z,19.65
2018-07-14T13:39:11.500Z,19.13
2018-07-14T13:41:41.753Z,19.44
2018-07-14T13:44:13.997Z,18.19
2018-07-14T13:46:50.648Z,18.56
2018-07-14T13:49:24.192Z,18.78
2018-07-14T13:51:58.440Z,18.26
2018-07-14T13:54:30.066Z,18.09
2018-07-14T13:57:01.089Z,19.06
2018-07-14T13:59:38.902Z,18.43
2018-07-14T14:02:17.103Z,18.96
2018-07-14T14:04:51.311Z,19.19
2018-07-14T14:12:32.586Z,19.23
2018-07-14T14:15:09.348Z,19.06
2018-07-14T14:17:42.579Z,18.60
2018-07-14T14:20:13.647Z,18.94
2018-07-14T14:22:46.419Z,18.38
2018-07-14T14:25:17.513Z,18.07
2018-07-14T14:27:48.543Z,18.51
2018-07-14T14:30:19.516Z,19.28
2018-07-14T14:32:53.232Z,19.92
2018-07-14T14:35:30.448Z,19.55
2018-07-14T14:38:01.696Z,19.12
2018-07-14T14:40:32.924Z,18.69
2018-07-14T14:43:05.190Z,18.63
2018-07-14T14:45:37.515Z,18.12
2018-07-14T14:48:08.129Z,18.73
2018-07-14T14:50:38.720Z,18.06
2018-07-14T14:53:10.239Z,17.98
2018-07-14T14:55:43.822Z,18.33
2018-07-14T14:58:14.693Z,18.40
2018-07-14T15:00:47.193Z,19.19
2018-07-14T15:03:18.243Z,19.80
2018-07-14T15:05:48.763Z,19.89
2018-07-14T15:08:19.153Z,19.37
2018-07-14T15:10:53.397Z,18.81
2018-07-14T15:13:27.910Z,20.35
2018-07-14T15:16:10.603Z,19.96
2018-07-14T15:18:42.838Z,20.52
2018-07-14T15:21:17.828Z,19.71
2018-07-14T15:23:52.339Z,20.78
2018-07-14T15:26:24.494Z,20.10
2018-07-14T15:28:57.943Z,20.61
2018-07-14T15:31:30.681Z,21.23
2018-07-14T15:34:03.400Z,21.22
2018-07-14T15:36:34.315Z,21.95
2018-07-14T15:39:06.460Z,22.52
2018-07-14T15:41:37.238Z,22.40
2018-07-14T15:44:09.845Z,22.44
2018-07-14T15:46:46.207Z,22.40
2018-07-14T15:49:21.301Z,22.84
2018-07-14T15:51:55.117Z,22.42
2018-07-14T15:54:30.418Z,22.60
2018-07-14T15:57:06.628Z,22.18
2018-07-14T15:59:37.287Z,22.56
2018-07-14T16:02:08.651Z,22.73
2018-07-14T16:04:39.353Z,22.39
2018-07-14T16:07:13.127Z,22.36
2018-07-14T16:09:59.726Z,23.05
2018-07-14T16:12:31.796Z,22.46
2018-07-14T16:15:07.375Z,22.05
2018-07-14T16:17:39.454Z,23.37
2018-07-14T16:20:10.538Z,23.19
2018-07-14T16:22:49.327Z,23.04
2018-07-14T16:25:19.892Z,22.97
2018-07-14T16:27:52.144Z,22.90
2018-07-14T16:30:34.154Z,22.86
2018-07-14T16:33:06.882Z,22.97
2018-07-14T16:35:38.448Z,22.40
2018-07-14T16:38:09.585Z,22.15
2018-07-14T16:40:42.701Z,22.56
2018-07-14T16:43:15.126Z,22.26
2018-07-14T16:45:50.612Z,21.80
2018-07-14T16:48:23.265Z,22.52
2018-07-14T16:50:54.363Z,22.31
2018-07-14T16:53:24.673Z,23.04
2018-07-14T16:55:57.261Z,22.70
2018-07-14T16:58:29.872Z,23.19
2018-07-14T17:01:04.200Z,23.78
2018-07-14T17:03:39.953Z,23.74
2018-07-14T17:06:12.445Z,23.20
2018-07-14T17:08:45.474Z,24.74
2018-07-14T17:11:17.305Z,25.47
2018-07-14T17:13:49.453Z,24.96
2018-07-14T17:16:23.016Z,25.70
2018-07-14T17:18:56.042Z,25.41
2018-07-14T17:21:30.277Z,25.42
2018-07-14T17:24:00.699Z,26.41
2018-07-14T17:26:35.437Z,27.11
2018-07-14T17:29:06.901Z,26.94
2018-07-14T17:31:41.898Z,26.77
2018-07-14T17:34:13.383Z,27.57
2018-07-14T17:36:44.089Z,27.13
2018-07-14T17:39:16.446Z,26.86
2018-07-14T17:41:47.034Z,27.27
2018-07-14T17:44:18.654Z,26.93
2018-07-14T17:46:52.640Z,26.45
2018-07-14T17:49:24.501Z,26.38
2018-07-14T17:54:49.824Z,27.75
2018-07-14T17:57:22.175Z,26.79
2018-07-14T17:59:56.372Z,27.69
2018-07-14T18:02:32.016Z,27.11
2018-07-14T18:05:04.624Z,27.35
2018-07-14T18:07:37.839Z,27.54
2018-07-14T18:10:11.178Z,27.84
2018-07-14T18:12:44.279Z,26.79
2018-07-14T18:15:20.363Z,27.66
2018-07-14T18:17:55.341Z,27.46
2018-07-14T18:20:27.609Z,26.94
2018-07-14T18:23:00.089Z,27.85
2018-07-14T18:25:33.670Z,27.11
2018-07-14T18:28:07.639Z,27.06
2018-07-14T18:30:44.387Z,27.23
2018-07-14T18:33:17.549Z,26.99
2018-07-14T18:35:50.754Z,27.69
2018-07-14T18:38:26.767Z,28.24
2018-07-14T18:41:00.621Z,28.01
2018-07-14T18:43:31.743Z,28.06
2018-07-14T18:46:17.276Z,27.90
2018-07-14T18:48:54.000Z,28.64
2018-07-14T18:51:33.785Z,28.22
2018-07-14T18:54:06.518Z,28.32
2018-07-14T18:56:40.861Z,28.55
2018-07-14T18:59:15.772Z,28.96
2018-07-14T19:01:48.112Z,28.26
2018-07-14T19:04:23.000Z,28.29
2018-07-14T19:06:56.932Z,29.04
2018-07-14T19:09:28.673Z,28.37
2018-07-14T19:12:01.056Z,28.58
2018-07-14T19:14:33.464Z,29.42
2018-07-14T19:17:20.308Z,28.25
2018-07-14T19:19:51.363Z,28.99
2018-07-14T19:22:27.373Z,29.01
2018-07-14T19:24:59.496Z,28.67
2018-07-14T19:27:32.388Z,28.84
2018-07-14T19:30:18.404Z,29.40
2018-07-14T19:32:55.386Z,29.00
2018-07-14T19:35:33.391Z,29.41
2018-07-14T19:38:22.738Z,29.93
